sensor_id;sensor_type;location;lat;lon;timestamp;temperature;humidity
11536;DHT22;5824;49.336;8.652;2023-04-07T00:02:16;8.60;1.00
11536;DHT22;5824;49.336;8.652;2023-04-07T00:04:41;8.50;1.00
11536;DHT22;5824;49.336;8.652;2023-04-07T00:07:07;9.00;1.00
11536;DHT22;5824;49.336;8.652;2023-04-07T00:09:34;8.50;1.00
11536;DHT22;5824;49.336;8.652;2023-04-07T00:11:59;8.50;1.00
11536;DHT22;5824;49.336;8.652;2023-04-07T00:14:28;8.50;1.00
11536;DHT22;5824;49.336;8.652;2023-04-07T00:16:54;8.50;1.00
11536;DHT22;5824;49.336;8.652;2023-04-07T00:19:19;9.00;1.00
11536;DHT22;5824;49.336;8.652;2023-04-07T00:21:45;9.30;1.00
11536;DHT22;5824;49.336;8.652;2023-04-07T00:24:10;8.90;1.00
11536;DHT22;5824;49.336;8.652;2023-04-07T00:26:36;8.50;1.00
11536;DHT22;5824;49.336;8.652;2023-04-07T00:29:02;8.50;1.00
11536;DHT22;5824;49.336;8.652;2023-04-07T00:31:27;8.50;1.00
11536;DHT22;5824;49.336;8.652;2023-04-07T00:37:15;8.50;1.00
11536;DHT22;5824;49.336;8.652;2023-04-07T00:39:41;8.50;1.00
11536;DHT22;5824;49.336;8.652;2023-04-07T00:42:06;8.60;1.00
11536;DHT22;5824;49.336;8.652;2023-04-07T00:44:33;8.40;1.00
11536;DHT22;5824;49.336;8.652;2023-04-07T00:46:58;8.50;1.00
11536;DHT22;5824;49.336;8.652;2023-04-07T00:49:25;8.50;1.00
11536;DHT22;5824;49.336;8.652;2023-04-07T00:51:53;8.50;1.00
11536;DHT22;5824;49.336;8.652;2023-04-07T00:54:19;8.50;1.00
11536;DHT22;5824;49.336;8.652;2023-04-07T00:56:45;8.50;1.00
11536;DHT22;5824;49.336;8.652;2023-04-07T00:59:11;8.50;1.00
11536;DHT22;5824;49.336;8.652;2023-04-07T01:02:01;9.20;1.00
11536;DHT22;5824;49.336;8.652;2023-04-07T01:07:04;8.50;1.00
11536;DHT22;5824;49.336;8.652;2023-04-07T01:09:45;8.50;1.00
11536;DHT22;5824;49.336;8.652;2023-04-07T01:14:51;8.50;1.00
11536;DHT22;5824;49.336;8.652;2023-04-07T01:17:20;8.50;1.00
11536;DHT22;5824;49.336;8.652;2023-04-07T01:19:54;8.70;1.00
11536;DHT22;5824;49.336;8.652;2023-04-07T01:22:32;8.60;1.00
11536;DHT22;5824;49.336;8.652;2023-04-07T01:25:21;8.50;1.00
11536;DHT22;5824;49.336;8.652;2023-04-07T01:28:06;8.50;1.00
11536;DHT22;5824;49.336;8.652;2023-04-07T01:30:39;8.50;1.00
11536;DHT22;5824;49.336;8.652;2023-04-07T01:33:06;8.50;1.00
11536;DHT22;5824;49.336;8.652;2023-04-07T01:35:34;8.50;1.00
11536;DHT22;5824;49.336;8.652;2023-04-07T01:38:02;8.50;1.00
11536;DHT22;5824;49.336;8.652;2023-04-07T01:40:28;8.60;1.00
11536;DHT22;5824;49.336;8.652;2023-04-07T01:42:55;8.50;1.00
11536;DHT22;5824;49.336;8.652;2023-04-07T01:45:22;8.60;1.00
11536;DHT22;5824;49.336;8.652;2023-04-07T01:47:48;8.60;1.00
11536;DHT22;5824;49.336;8.652;2023-04-07T01:50:15;9.10;1.00
11536;DHT22;5824;49.336;8.652;2023-04-07T01:52:41;8.50;1.00
11536;DHT22;5824;49.336;8.652;2023-04-07T01:55:08;8.50;1.00
11536;DHT22;5824;49.336;8.652;2023-04-07T01:57:34;8.60;1.00
11536;DHT22;5824;49.336;8.652;2023-04-07T02:00:00;10.80;1.00
11536;DHT22;5824;49.336;8.652;2023-04-07T02:02:26;7.20;1.00
11536;DHT22;5824;49.336;8.652;2023-04-07T02:04:57;8.60;1.00
11536;DHT22;5824;49.336;8.652;2023-04-07T02:07:30;8.60;1.00
11536;DHT22;5824;49.336;8.652;2023-04-07T02:09:59;8.60;1.00
11536;DHT22;5824;49.336;8.652;2023-04-07T02:12:28;8.70;1.00
11536;DHT22;5824;49.336;8.652;2023-04-07T02:14:54;8.70;1.00
11536;DHT22;5824;49.336;8.652;2023-04-07T02:17:22;8.80;1.00
11536;DHT22;5824;49.336;8.652;2023-04-07T02:19:50;8.80;1.00
11536;DHT22;5824;49.336;8.652;2023-04-07T02:22:17;8.80;1.00
11536;DHT22;5824;49.336;8.652;2023-04-07T02:24:43;8.80;1.00
11536;DHT22;5824;49.336;8.652;2023-04-07T02:27:08;8.70;1.00
11536;DHT22;5824;49.336;8.652;2023-04-07T02:29:34;8.70;1.00
11536;DHT22;5824;49.336;8.652;2023-04-07T02:32:00;8.70;1.00
11536;DHT22;5824;49.336;8.652;2023-04-07T02:34:25;8.60;1.00
11536;DHT22;5824;49.336;8.652;2023-04-07T02:36:51;8.70;1.00
11536;DHT22;5824;49.336;8.652;2023-04-07T02:39:16;8.70;1.00
11536;DHT22;5824;49.336;8.652;2023-04-07T02:41:42;8.70;1.00
11536;DHT22;5824;49.336;8.652;2023-04-07T02:44:08;8.70;1.00
11536;DHT22;5824;49.336;8.652;2023-04-07T02:46:33;8.70;1.00
11536;DHT22;5824;49.336;8.652;2023-04-07T02:48:59;8.70;1.00
11536;DHT22;5824;49.336;8.652;2023-04-07T02:51:25;8.70;1.00
11536;DHT22;5824;49.336;8.652;2023-04-07T02:53:51;8.70;1.00
11536;DHT22;5824;49.336;8.652;2023-04-07T02:56:17;8.70;1.00
11536;DHT22;5824;49.336;8.652;2023-04-07T02:58:42;10.30;1.00
11536;DHT22;5824;49.336;8.652;2023-04-07T03:01:08;8.80;1.00
11536;DHT22;5824;49.336;8.652;2023-04-07T03:03:33;8.80;1.00
11536;DHT22;5824;49.336;8.652;2023-04-07T03:05:59;8.80;1.00
11536;DHT22;5824;49.336;8.652;2023-04-07T03:08:26;8.90;1.00
11536;DHT22;5824;49.336;8.652;2023-04-07T03:10:51;8.80;1.00
11536;DHT22;5824;49.336;8.652;2023-04-07T03:13:17;8.70;1.00
11536;DHT22;5824;49.336;8.652;2023-04-07T03:15:44;8.80;1.00
11536;DHT22;5824;49.336;8.652;2023-04-07T03:18:09;8.80;1.00
11536;DHT22;5824;49.336;8.652;2023-04-07T03:20:36;8.80;1.00
11536;DHT22;5824;49.336;8.652;2023-04-07T03:23:02;8.80;1.00
11536;DHT22;5824;49.336;8.652;2023-04-07T03:25:27;8.90;1.00
11536;DHT22;5824;49.336;8.652;2023-04-07T03:27:53;8.90;1.00
11536;DHT22;5824;49.336;8.652;2023-04-07T03:30:19;9.00;1.00
11536;DHT22;5824;49.336;8.652;2023-04-07T03:32:45;9.20;1.00
11536;DHT22;5824;49.336;8.652;2023-04-07T03:35:10;9.00;1.00
11536;DHT22;5824;49.336;8.652;2023-04-07T03:37:36;9.00;1.00
11536;DHT22;5824;49.336;8.652;2023-04-07T03:40:02;9.00;1.00
11536;DHT22;5824;49.336;8.652;2023-04-07T03:42:27;9.00;1.00
11536;DHT22;5824;49.336;8.652;2023-04-07T03:44:53;9.00;1.00
11536;DHT22;5824;49.336;8.652;2023-04-07T03:47:18;8.90;1.00
11536;DHT22;5824;49.336;8.652;2023-04-07T03:49:44;8.90;1.00
11536;DHT22;5824;49.336;8.652;2023-04-07T03:52:09;8.90;1.00
11536;DHT22;5824;49.336;8.652;2023-04-07T03:54:35;8.90;1.00
11536;DHT22;5824;49.336;8.652;2023-04-07T03:57:01;8.90;1.00
11536;DHT22;5824;49.336;8.652;2023-04-07T03:59:27;8.90;1.00
11536;DHT22;5824;49.336;8.652;2023-04-07T04:01:53;8.90;1.00
11536;DHT22;5824;49.336;8.652;2023-04-07T04:04:18;8.90;1.00
11536;DHT22;5824;49.336;8.652;2023-04-07T04:06:44;8.90;1.00
11536;DHT22;5824;49.336;8.652;2023-04-07T04:09:10;8.90;1.00
11536;DHT22;5824;49.336;8.652;2023-04-07T04:11:35;8.90;1.00
11536;DHT22;5824;49.336;8.652;2023-04-07T04:14:01;8.90;1.00
11536;DHT22;5824;49.336;8.652;2023-04-07T04:16:27;8.90;1.00
11536;DHT22;5824;49.336;8.652;2023-04-07T04:18:52;8.90;1.00
11536;DHT22;5824;49.336;8.652;2023-04-07T04:21:18;9.00;1.00
11536;DHT22;5824;49.336;8.652;2023-04-07T04:23:44;8.90;1.00
11536;DHT22;5824;49.336;8.652;2023-04-07T04:26:09;8.90;1.00
11536;DHT22;5824;49.336;8.652;2023-04-07T04:28:35;8.80;1.00
11536;DHT22;5824;49.336;8.652;2023-04-07T04:31:01;8.90;1.00
11536;DHT22;5824;49.336;8.652;2023-04-07T04:33:26;8.90;1.00
11536;DHT22;5824;49.336;8.652;2023-04-07T04:35:52;9.00;1.00
11536;DHT22;5824;49.336;8.652;2023-04-07T04:38:18;9.00;1.00
11536;DHT22;5824;49.336;8.652;2023-04-07T04:40:43;9.00;1.00
11536;DHT22;5824;49.336;8.652;2023-04-07T04:43:09;9.00;1.00
11536;DHT22;5824;49.336;8.652;2023-04-07T04:45:34;9.00;1.00
11536;DHT22;5824;49.336;8.652;2023-04-07T04:48:00;9.00;1.00
11536;DHT22;5824;49.336;8.652;2023-04-07T04:50:26;9.00;1.00
11536;DHT22;5824;49.336;8.652;2023-04-07T04:52:51;9.00;1.00
11536;DHT22;5824;49.336;8.652;2023-04-07T04:55:17;9.00;1.00
11536;DHT22;5824;49.336;8.652;2023-04-07T04:57:43;9.00;1.00
11536;DHT22;5824;49.336;8.652;2023-04-07T05:00:09;9.00;1.00
11536;DHT22;5824;49.336;8.652;2023-04-07T05:02:35;9.10;1.00
11536;DHT22;5824;49.336;8.652;2023-04-07T05:05:01;9.10;1.00
11536;DHT22;5824;49.336;8.652;2023-04-07T05:07:26;9.10;1.00
11536;DHT22;5824;49.336;8.652;2023-04-07T05:09:52;9.10;1.00
11536;DHT22;5824;49.336;8.652;2023-04-07T05:12:18;9.10;1.00
11536;DHT22;5824;49.336;8.652;2023-04-07T05:14:43;9.20;1.00
11536;DHT22;5824;49.336;8.652;2023-04-07T05:17:09;9.20;1.00
11536;DHT22;5824;49.336;8.652;2023-04-07T05:19:34;9.20;1.00
11536;DHT22;5824;49.336;8.652;2023-04-07T05:22:00;9.20;1.00
11536;DHT22;5824;49.336;8.652;2023-04-07T05:24:27;9.20;1.00
11536;DHT22;5824;49.336;8.652;2023-04-07T05:26:53;9.20;1.00
11536;DHT22;5824;49.336;8.652;2023-04-07T05:29:18;9.10;1.00
11536;DHT22;5824;49.336;8.652;2023-04-07T05:31:44;9.00;1.00
11536;DHT22;5824;49.336;8.652;2023-04-07T05:34:10;8.90;1.00
11536;DHT22;5824;49.336;8.652;2023-04-07T05:36:35;8.80;1.00
11536;DHT22;5824;49.336;8.652;2023-04-07T05:39:01;8.70;1.00
11536;DHT22;5824;49.336;8.652;2023-04-07T05:41:27;8.70;1.00
11536;DHT22;5824;49.336;8.652;2023-04-07T05:43:52;8.70;1.00
11536;DHT22;5824;49.336;8.652;2023-04-07T05:46:18;8.60;1.00
11536;DHT22;5824;49.336;8.652;2023-04-07T05:48:43;8.50;1.00
11536;DHT22;5824;49.336;8.652;2023-04-07T05:51:09;8.50;1.00
11536;DHT22;5824;49.336;8.652;2023-04-07T05:53:34;8.50;1.00
11536;DHT22;5824;49.336;8.652;2023-04-07T05:56:00;8.50;1.00
11536;DHT22;5824;49.336;8.652;2023-04-07T05:58:26;8.50;1.00
11536;DHT22;5824;49.336;8.652;2023-04-07T06:00:52;8.60;1.00
11536;DHT22;5824;49.336;8.652;2023-04-07T06:03:18;8.70;1.00
11536;DHT22;5824;49.336;8.652;2023-04-07T06:05:45;8.80;1.00
11536;DHT22;5824;49.336;8.652;2023-04-07T06:08:11;9.00;1.00
11536;DHT22;5824;49.336;8.652;2023-04-07T06:10:36;9.10;1.00
11536;DHT22;5824;49.336;8.652;2023-04-07T06:13:02;9.30;1.00
11536;DHT22;5824;49.336;8.652;2023-04-07T06:15:27;9.40;1.00
11536;DHT22;5824;49.336;8.652;2023-04-07T06:17:53;9.60;1.00
11536;DHT22;5824;49.336;8.652;2023-04-07T06:20:18;9.90;1.00
11536;DHT22;5824;49.336;8.652;2023-04-07T06:22:46;10.10;1.00
11536;DHT22;5824;49.336;8.652;2023-04-07T06:25:11;10.50;1.00
11536;DHT22;5824;49.336;8.652;2023-04-07T06:27:37;10.70;1.00
11536;DHT22;5824;49.336;8.652;2023-04-07T06:30:03;11.00;1.00
11536;DHT22;5824;49.336;8.652;2023-04-07T06:32:29;11.20;1.00
11536;DHT22;5824;49.336;8.652;2023-04-07T06:34:54;11.40;1.00
11536;DHT22;5824;49.336;8.652;2023-04-07T06:37:20;11.60;1.00
11536;DHT22;5824;49.336;8.652;2023-04-07T06:39:49;11.70;1.00
11536;DHT22;5824;49.336;8.652;2023-04-07T06:42:14;12.00;1.00
11536;DHT22;5824;49.336;8.652;2023-04-07T06:44:40;12.00;1.00
11536;DHT22;5824;49.336;8.652;2023-04-07T06:47:05;12.00;1.00
11536;DHT22;5824;49.336;8.652;2023-04-07T06:49:31;12.00;1.00
11536;DHT22;5824;49.336;8.652;2023-04-07T06:51:57;11.80;1.00
11536;DHT22;5824;49.336;8.652;2023-04-07T06:54:22;11.40;1.00
11536;DHT22;5824;49.336;8.652;2023-04-07T06:56:48;11.10;1.00
11536;DHT22;5824;49.336;8.652;2023-04-07T06:59:14;11.00;1.00
11536;DHT22;5824;49.336;8.652;2023-04-07T07:01:39;11.50;1.00
11536;DHT22;5824;49.336;8.652;2023-04-07T07:04:05;11.30;1.00
11536;DHT22;5824;49.336;8.652;2023-04-07T07:06:30;11.60;1.00
11536;DHT22;5824;49.336;8.652;2023-04-07T07:08:57;11.90;1.00
11536;DHT22;5824;49.336;8.652;2023-04-07T07:11:22;12.40;1.00
11536;DHT22;5824;49.336;8.652;2023-04-07T07:13:48;13.60;1.00
11536;DHT22;5824;49.336;8.652;2023-04-07T07:16:13;13.60;1.00
11536;DHT22;5824;49.336;8.652;2023-04-07T07:18:39;13.60;1.00
11536;DHT22;5824;49.336;8.652;2023-04-07T07:21:05;12.40;1.00
11536;DHT22;5824;49.336;8.652;2023-04-07T07:23:30;13.60;1.00
11536;DHT22;5824;49.336;8.652;2023-04-07T07:25:56;13.60;1.00
11536;DHT22;5824;49.336;8.652;2023-04-07T07:28:22;13.50;1.00
11536;DHT22;5824;49.336;8.652;2023-04-07T07:30:48;13.80;1.00
11536;DHT22;5824;49.336;8.652;2023-04-07T07:33:13;13.90;1.00
11536;DHT22;5824;49.336;8.652;2023-04-07T07:35:39;14.20;1.00
11536;DHT22;5824;49.336;8.652;2023-04-07T07:38:05;15.00;1.00
11536;DHT22;5824;49.336;8.652;2023-04-07T07:40:31;16.00;1.00
11536;DHT22;5824;49.336;8.652;2023-04-07T07:42:57;17.30;1.00
11536;DHT22;5824;49.336;8.652;2023-04-07T07:45:22;18.40;1.00
11536;DHT22;5824;49.336;8.652;2023-04-07T07:47:48;19.20;1.00
11536;DHT22;5824;49.336;8.652;2023-04-07T07:50:14;20.10;1.00
11536;DHT22;5824;49.336;8.652;2023-04-07T07:52:39;21.00;1.00
11536;DHT22;5824;49.336;8.652;2023-04-07T07:55:06;21.60;1.00
11536;DHT22;5824;49.336;8.652;2023-04-07T07:57:32;22.30;1.00
11536;DHT22;5824;49.336;8.652;2023-04-07T07:59:57;22.40;1.00
11536;DHT22;5824;49.336;8.652;2023-04-07T08:02:23;21.90;1.00
11536;DHT22;5824;49.336;8.652;2023-04-07T08:04:53;21.40;1.00
11536;DHT22;5824;49.336;8.652;2023-04-07T08:07:19;21.70;1.00
11536;DHT22;5824;49.336;8.652;2023-04-07T08:09:46;21.40;1.00
11536;DHT22;5824;49.336;8.652;2023-04-07T08:12:11;20.40;1.00
11536;DHT22;5824;49.336;8.652;2023-04-07T08:14:37;20.50;1.00
11536;DHT22;5824;49.336;8.652;2023-04-07T08:17:02;20.60;1.00
11536;DHT22;5824;49.336;8.652;2023-04-07T08:19:28;21.40;1.00
11536;DHT22;5824;49.336;8.652;2023-04-07T08:21:53;22.00;1.00
11536;DHT22;5824;49.336;8.652;2023-04-07T08:24:19;21.00;1.00
11536;DHT22;5824;49.336;8.652;2023-04-07T08:26:45;19.80;1.00
11536;DHT22;5824;49.336;8.652;2023-04-07T08:29:11;18.70;1.00
11536;DHT22;5824;49.336;8.652;2023-04-07T08:31:36;18.30;1.00
11536;DHT22;5824;49.336;8.652;2023-04-07T08:34:02;19.50;1.00
11536;DHT22;5824;49.336;8.652;2023-04-07T08:36:27;20.70;1.00
11536;DHT22;5824;49.336;8.652;2023-04-07T08:38:54;20.60;1.00
11536;DHT22;5824;49.336;8.652;2023-04-07T08:41:29;19.70;1.00
11536;DHT22;5824;49.336;8.652;2023-04-07T08:43:57;18.40;1.00
11536;DHT22;5824;49.336;8.652;2023-04-07T08:46:24;17.60;1.00
11536;DHT22;5824;49.336;8.652;2023-04-07T08:48:51;17.10;1.00
11536;DHT22;5824;49.336;8.652;2023-04-07T08:51:29;17.00;1.00
11536;DHT22;5824;49.336;8.652;2023-04-07T08:54:02;16.90;1.00
11536;DHT22;5824;49.336;8.652;2023-04-07T08:56:32;17.40;1.00
11536;DHT22;5824;49.336;8.652;2023-04-07T08:59:00;18.30;1.00
11536;DHT22;5824;49.336;8.652;2023-04-07T09:01:26;19.10;1.00
11536;DHT22;5824;49.336;8.652;2023-04-07T09:03:52;19.50;1.00
11536;DHT22;5824;49.336;8.652;2023-04-07T09:06:18;19.40;1.00
11536;DHT22;5824;49.336;8.652;2023-04-07T09:08:43;19.30;1.00
11536;DHT22;5824;49.336;8.652;2023-04-07T09:11:09;19.00;1.00
11536;DHT22;5824;49.336;8.652;2023-04-07T09:13:36;18.80;1.00
11536;DHT22;5824;49.336;8.652;2023-04-07T09:16:01;18.80;1.00
11536;DHT22;5824;49.336;8.652;2023-04-07T09:18:27;18.60;1.00
11536;DHT22;5824;49.336;8.652;2023-04-07T09:20:57;18.20;1.00
11536;DHT22;5824;49.336;8.652;2023-04-07T09:23:36;17.60;1.00
11536;DHT22;5824;49.336;8.652;2023-04-07T09:26:18;17.10;1.00
11536;DHT22;5824;49.336;8.652;2023-04-07T09:28:51;16.90;1.00
11536;DHT22;5824;49.336;8.652;2023-04-07T09:31:17;17.50;1.00
11536;DHT22;5824;49.336;8.652;2023-04-07T09:33:43;17.60;1.00
11536;DHT22;5824;49.336;8.652;2023-04-07T09:36:09;17.50;1.00
11536;DHT22;5824;49.336;8.652;2023-04-07T09:38:39;17.70;1.00
11536;DHT22;5824;49.336;8.652;2023-04-07T09:41:09;19.40;1.00
11536;DHT22;5824;49.336;8.652;2023-04-07T09:43:37;23.00;1.00
11536;DHT22;5824;49.336;8.652;2023-04-07T09:46:18;23.00;1.00
11536;DHT22;5824;49.336;8.652;2023-04-07T09:48:45;24.80;1.00
11536;DHT22;5824;49.336;8.652;2023-04-07T09:51:13;24.60;1.00
11536;DHT22;5824;49.336;8.652;2023-04-07T09:53:46;21.70;1.00
11536;DHT22;5824;49.336;8.652;2023-04-07T09:56:16;21.60;1.00
11536;DHT22;5824;49.336;8.652;2023-04-07T09:58:46;20.80;1.00
11536;DHT22;5824;49.336;8.652;2023-04-07T10:01:12;20.30;1.00
11536;DHT22;5824;49.336;8.652;2023-04-07T10:03:39;21.40;1.00
11536;DHT22;5824;49.336;8.652;2023-04-07T10:06:05;21.50;1.00
11536;DHT22;5824;49.336;8.652;2023-04-07T10:08:33;22.60;1.00
11536;DHT22;5824;49.336;8.652;2023-04-07T10:11:03;23.80;1.00
11536;DHT22;5824;49.336;8.652;2023-04-07T10:13:30;24.90;1.00
11536;DHT22;5824;49.336;8.652;2023-04-07T10:15:57;24.60;1.00
11536;DHT22;5824;49.336;8.652;2023-04-07T10:18:27;23.20;1.00
11536;DHT22;5824;49.336;8.652;2023-04-07T10:20:55;22.40;1.00
11536;DHT22;5824;49.336;8.652;2023-04-07T10:23:25;21.80;1.00
11536;DHT22;5824;49.336;8.652;2023-04-07T10:25:53;21.70;1.00
11536;DHT22;5824;49.336;8.652;2023-04-07T10:28:22;21.70;1.00
11536;DHT22;5824;49.336;8.652;2023-04-07T10:30:49;20.90;1.00
11536;DHT22;5824;49.336;8.652;2023-04-07T10:33:15;20.20;1.00
11536;DHT22;5824;49.336;8.652;2023-04-07T10:36:02;19.40;1.00
11536;DHT22;5824;49.336;8.652;2023-04-07T10:38:29;18.80;1.00
11536;DHT22;5824;49.336;8.652;2023-04-07T10:40:55;18.40;1.00
11536;DHT22;5824;49.336;8.652;2023-04-07T10:43:38;17.80;1.00
11536;DHT22;5824;49.336;8.652;2023-04-07T10:46:05;17.10;1.00
11536;DHT22;5824;49.336;8.652;2023-04-07T10:48:30;16.80;1.00
11536;DHT22;5824;49.336;8.652;2023-04-07T10:53:29;16.50;1.00
11536;DHT22;5824;49.336;8.652;2023-04-07T10:55:56;16.30;1.00
11536;DHT22;5824;49.336;8.652;2023-04-07T10:58:28;16.30;1.00
11536;DHT22;5824;49.336;8.652;2023-04-07T11:06:09;16.40;1.00
11536;DHT22;5824;49.336;8.652;2023-04-07T11:08:43;16.50;1.00
11536;DHT22;5824;49.336;8.652;2023-04-07T11:11:10;16.60;1.00
11536;DHT22;5824;49.336;8.652;2023-04-07T11:13:43;17.30;1.00
11536;DHT22;5824;49.336;8.652;2023-04-07T11:16:10;17.40;1.00
11536;DHT22;5824;49.336;8.652;2023-04-07T11:18:37;18.20;1.00
11536;DHT22;5824;49.336;8.652;2023-04-07T11:21:03;18.90;1.00
11536;DHT22;5824;49.336;8.652;2023-04-07T11:23:43;19.40;1.00
11536;DHT22;5824;49.336;8.652;2023-04-07T11:26:11;19.30;1.00
11536;DHT22;5824;49.336;8.652;2023-04-07T11:28:51;19.90;1.00
11536;DHT22;5824;49.336;8.652;2023-04-07T11:31:28;21.00;1.00
11536;DHT22;5824;49.336;8.652;2023-04-07T11:34:01;21.90;1.00
11536;DHT22;5824;49.336;8.652;2023-04-07T11:36:34;21.80;1.00
11536;DHT22;5824;49.336;8.652;2023-04-07T11:39:00;21.50;1.00
11536;DHT22;5824;49.336;8.652;2023-04-07T11:41:29;21.40;1.00
11536;DHT22;5824;49.336;8.652;2023-04-07T11:44:09;21.20;1.00
11536;DHT22;5824;49.336;8.652;2023-04-07T11:46:36;20.70;1.00
11536;DHT22;5824;49.336;8.652;2023-04-07T11:49:12;20.60;1.00
11536;DHT22;5824;49.336;8.652;2023-04-07T11:51:39;20.80;1.00
11536;DHT22;5824;49.336;8.652;2023-04-07T11:54:05;20.20;1.00
11536;DHT22;5824;49.336;8.652;2023-04-07T11:56:41;21.30;1.00
11536;DHT22;5824;49.336;8.652;2023-04-07T11:59:07;23.70;1.00
11536;DHT22;5824;49.336;8.652;2023-04-07T12:01:40;27.10;1.00
11536;DHT22;5824;49.336;8.652;2023-04-07T12:04:06;28.30;1.00
11536;DHT22;5824;49.336;8.652;2023-04-07T12:06:36;27.70;1.00
11536;DHT22;5824;49.336;8.652;2023-04-07T12:09:09;26.20;1.00
11536;DHT22;5824;49.336;8.652;2023-04-07T12:11:49;24.30;1.00
11536;DHT22;5824;49.336;8.652;2023-04-07T12:14:14;22.90;1.00
11536;DHT22;5824;49.336;8.652;2023-04-07T12:16:40;21.60;1.00
11536;DHT22;5824;49.336;8.652;2023-04-07T12:19:07;20.50;1.00
11536;DHT22;5824;49.336;8.652;2023-04-07T12:21:32;19.80;1.00
11536;DHT22;5824;49.336;8.652;2023-04-07T12:23:58;19.30;1.00
11536;DHT22;5824;49.336;8.652;2023-04-07T12:26:23;18.80;1.00
11536;DHT22;5824;49.336;8.652;2023-04-07T12:28:49;18.20;1.00
11536;DHT22;5824;49.336;8.652;2023-04-07T12:31:15;17.80;1.00
11536;DHT22;5824;49.336;8.652;2023-04-07T12:33:41;17.30;1.00
11536;DHT22;5824;49.336;8.652;2023-04-07T12:36:06;17.30;1.00
11536;DHT22;5824;49.336;8.652;2023-04-07T12:38:32;17.30;1.00
11536;DHT22;5824;49.336;8.652;2023-04-07T12:40:57;17.30;1.00
11536;DHT22;5824;49.336;8.652;2023-04-07T12:43:31;17.70;1.00
11536;DHT22;5824;49.336;8.652;2023-04-07T12:45:56;17.20;1.00
11536;DHT22;5824;49.336;8.652;2023-04-07T12:48:22;17.20;1.00
11536;DHT22;5824;49.336;8.652;2023-04-07T12:50:48;17.10;1.00
11536;DHT22;5824;49.336;8.652;2023-04-07T12:53:14;17.10;1.00
11536;DHT22;5824;49.336;8.652;2023-04-07T12:55:39;16.70;1.00
11536;DHT22;5824;49.336;8.652;2023-04-07T12:58:06;16.60;1.00
11536;DHT22;5824;49.336;8.652;2023-04-07T13:00:32;16.50;1.00
11536;DHT22;5824;49.336;8.652;2023-04-07T13:02:57;16.90;1.00
11536;DHT22;5824;49.336;8.652;2023-04-07T13:05:23;16.80;1.00
11536;DHT22;5824;49.336;8.652;2023-04-07T13:07:48;16.80;1.00
11536;DHT22;5824;49.336;8.652;2023-04-07T13:10:14;16.90;1.00
11536;DHT22;5824;49.336;8.652;2023-04-07T13:12:40;17.10;1.00
11536;DHT22;5824;49.336;8.652;2023-04-07T13:15:07;17.80;1.00
11536;DHT22;5824;49.336;8.652;2023-04-07T13:17:33;17.60;1.00
11536;DHT22;5824;49.336;8.652;2023-04-07T13:20:02;17.40;1.00
11536;DHT22;5824;49.336;8.652;2023-04-07T13:22:28;17.30;1.00
11536;DHT22;5824;49.336;8.652;2023-04-07T13:24:54;17.60;1.00
11536;DHT22;5824;49.336;8.652;2023-04-07T13:27:19;17.70;1.00
11536;DHT22;5824;49.336;8.652;2023-04-07T13:29:45;17.60;1.00
11536;DHT22;5824;49.336;8.652;2023-04-07T13:32:11;17.70;1.00
11536;DHT22;5824;49.336;8.652;2023-04-07T13:34:37;18.30;1.00
11536;DHT22;5824;49.336;8.652;2023-04-07T13:37:04;19.20;1.00
11536;DHT22;5824;49.336;8.652;2023-04-07T13:39:30;19.20;1.00
11536;DHT22;5824;49.336;8.652;2023-04-07T13:41:56;18.90;1.00
11536;DHT22;5824;49.336;8.652;2023-04-07T13:44:23;18.60;1.00
11536;DHT22;5824;49.336;8.652;2023-04-07T13:46:49;18.50;1.00
11536;DHT22;5824;49.336;8.652;2023-04-07T13:49:14;18.60;1.00
11536;DHT22;5824;49.336;8.652;2023-04-07T13:51:40;19.30;1.00
11536;DHT22;5824;49.336;8.652;2023-04-07T13:54:06;19.70;1.00
11536;DHT22;5824;49.336;8.652;2023-04-07T13:56:32;19.80;1.00
11536;DHT22;5824;49.336;8.652;2023-04-07T13:59:00;20.70;1.00
11536;DHT22;5824;49.336;8.652;2023-04-07T14:01:26;21.80;1.00
11536;DHT22;5824;49.336;8.652;2023-04-07T14:03:51;21.00;1.00
11536;DHT22;5824;49.336;8.652;2023-04-07T14:06:17;21.00;1.00
11536;DHT22;5824;49.336;8.652;2023-04-07T14:08:47;20.50;1.00
11536;DHT22;5824;49.336;8.652;2023-04-07T14:11:16;19.80;1.00
11536;DHT22;5824;49.336;8.652;2023-04-07T14:13:42;18.40;1.00
11536;DHT22;5824;49.336;8.652;2023-04-07T14:16:07;18.40;1.00
11536;DHT22;5824;49.336;8.652;2023-04-07T14:18:33;18.20;1.00
11536;DHT22;5824;49.336;8.652;2023-04-07T14:20:59;17.90;1.00
11536;DHT22;5824;49.336;8.652;2023-04-07T14:23:25;17.70;1.00
11536;DHT22;5824;49.336;8.652;2023-04-07T14:25:51;17.40;1.00
11536;DHT22;5824;49.336;8.652;2023-04-07T14:28:17;17.40;1.00
11536;DHT22;5824;49.336;8.652;2023-04-07T14:30:42;17.60;1.00
11536;DHT22;5824;49.336;8.652;2023-04-07T14:33:08;18.30;1.00
11536;DHT22;5824;49.336;8.652;2023-04-07T14:35:36;19.10;1.00
11536;DHT22;5824;49.336;8.652;2023-04-07T14:38:02;20.20;1.00
11536;DHT22;5824;49.336;8.652;2023-04-07T14:40:27;21.20;1.00
11536;DHT22;5824;49.336;8.652;2023-04-07T14:42:53;21.20;1.00
11536;DHT22;5824;49.336;8.652;2023-04-07T14:45:18;21.80;1.00
11536;DHT22;5824;49.336;8.652;2023-04-07T14:47:44;22.10;1.00
11536;DHT22;5824;49.336;8.652;2023-04-07T14:50:10;23.10;1.00
11536;DHT22;5824;49.336;8.652;2023-04-07T14:52:35;23.90;1.00
11536;DHT22;5824;49.336;8.652;2023-04-07T14:55:01;23.70;1.00
11536;DHT22;5824;49.336;8.652;2023-04-07T14:57:27;22.90;1.00
11536;DHT22;5824;49.336;8.652;2023-04-07T14:59:52;21.70;1.00
11536;DHT22;5824;49.336;8.652;2023-04-07T15:02:18;20.40;1.00
11536;DHT22;5824;49.336;8.652;2023-04-07T15:04:43;19.30;1.00
11536;DHT22;5824;49.336;8.652;2023-04-07T15:07:09;18.90;1.00
11536;DHT22;5824;49.336;8.652;2023-04-07T15:09:34;18.60;1.00
11536;DHT22;5824;49.336;8.652;2023-04-07T15:12:00;18.30;1.00
11536;DHT22;5824;49.336;8.652;2023-04-07T15:14:26;17.90;1.00
11536;DHT22;5824;49.336;8.652;2023-04-07T15:16:52;17.80;1.00
11536;DHT22;5824;49.336;8.652;2023-04-07T15:19:18;18.00;1.00
11536;DHT22;5824;49.336;8.652;2023-04-07T15:21:43;18.40;1.00
11536;DHT22;5824;49.336;8.652;2023-04-07T15:24:09;19.10;1.00
11536;DHT22;5824;49.336;8.652;2023-04-07T15:26:34;18.90;1.00
11536;DHT22;5824;49.336;8.652;2023-04-07T15:29:00;18.10;1.00
11536;DHT22;5824;49.336;8.652;2023-04-07T15:31:26;17.50;1.00
11536;DHT22;5824;49.336;8.652;2023-04-07T15:33:52;17.60;1.00
11536;DHT22;5824;49.336;8.652;2023-04-07T15:36:18;19.40;1.00
11536;DHT22;5824;49.336;8.652;2023-04-07T15:38:44;20.70;1.00
11536;DHT22;5824;49.336;8.652;2023-04-07T15:41:13;22.10;1.00
11536;DHT22;5824;49.336;8.652;2023-04-07T15:43:40;23.60;1.00
11536;DHT22;5824;49.336;8.652;2023-04-07T15:46:05;23.60;1.00
11536;DHT22;5824;49.336;8.652;2023-04-07T15:48:31;22.40;1.00
11536;DHT22;5824;49.336;8.652;2023-04-07T15:50:57;20.60;1.00
11536;DHT22;5824;49.336;8.652;2023-04-07T15:53:22;19.00;1.00
11536;DHT22;5824;49.336;8.652;2023-04-07T15:55:48;19.00;1.00
11536;DHT22;5824;49.336;8.652;2023-04-07T15:58:13;19.20;1.00
11536;DHT22;5824;49.336;8.652;2023-04-07T16:00:40;18.50;1.00
11536;DHT22;5824;49.336;8.652;2023-04-07T16:03:05;17.70;1.00
11536;DHT22;5824;49.336;8.652;2023-04-07T16:05:31;17.10;1.00
11536;DHT22;5824;49.336;8.652;2023-04-07T16:07:57;16.70;1.00
11536;DHT22;5824;49.336;8.652;2023-04-07T16:10:22;16.20;1.00
11536;DHT22;5824;49.336;8.652;2023-04-07T16:12:48;16.10;1.00
11536;DHT22;5824;49.336;8.652;2023-04-07T16:15:14;15.80;1.00
11536;DHT22;5824;49.336;8.652;2023-04-07T16:17:45;15.70;1.00
11536;DHT22;5824;49.336;8.652;2023-04-07T16:20:11;15.30;1.00
11536;DHT22;5824;49.336;8.652;2023-04-07T16:22:43;15.00;1.00